.
WxDataArchive / Data Records for 2011-07-12
2011-07-11 July 2011 2011-07-13

Data Records for Tuesday, 12 July 2011

Time	Temp	Chill	HIndex	Humid	Dewpt	 Wind 	HiWind	WindDir	Rain 	Barom 
-----	----	-----	------	-----	-----	------	------	-------	-----	----- 
00:00	76.0	76.0	76.9	81	69.7	0	0	---	0.00	29.837 
00:05	76.0	76.0	76.9	81	69.7	0	0	---	0.00	29.837 
00:10	75.8	75.8	76.5	82	69.9	0	0	---	0.00	29.837 
00:15	75.6	75.6	76.2	82	69.7	0	0	---	0.00	29.844 
00:20	75.4	75.4	75.8	83	69.9	0	0	---	0.00	29.844 
00:25	75.4	75.4	75.8	83	69.9	0	0	---	0.00	29.844 
00:30	75.3	75.3	75.5	84	70.1	0	0	---	0.00	29.845 
00:35	75.1	75.1	75.2	84	69.9	0	0	---	0.00	29.845 
00:40	75.1	75.1	75.2	84	69.9	0	0	---	0.00	29.845 
00:45	74.9	74.9	74.9	84	69.7	0	0	---	0.00	29.848 
00:50	74.7	74.7	74.7	85	69.9	0	0	---	0.00	29.848 
00:55	74.6	74.6	74.6	85	69.8	0	0	---	0.00	29.848 
01:00	74.4	74.4	74.4	86	69.9	0	0	---	0.00	29.847 
01:05	74.2	74.2	74.2	86	69.7	0	0	---	0.00	29.847 
01:10	74.2	74.2	74.2	86	69.7	0	0	---	0.00	29.847 
01:15	74.0	74.0	74.0	87	69.9	0	0	---	0.00	29.851 
01:20	73.9	73.9	73.9	87	69.8	0	0	---	0.00	29.851 
01:25	73.7	73.7	73.7	87	69.6	0	0	---	0.00	29.851 
01:30	73.7	73.7	73.7	87	69.6	0	0	---	0.00	29.850 
01:35	73.5	73.5	73.5	88	69.7	0	0	---	0.00	29.850 
01:40	73.5	73.5	73.5	88	69.7	0	0	---	0.00	29.850 
01:45	73.3	73.3	73.3	88	69.5	0	0	---	0.00	29.855 
01:50	73.2	73.2	73.2	88	69.4	0	0	---	0.00	29.855 
01:55	73.0	73.0	73.0	89	69.6	0	0	---	0.00	29.855 
02:00	73.0	73.0	73.0	89	69.6	0	0	---	0.00	29.855 
02:05	72.8	72.8	72.8	89	69.4	0	0	---	0.00	29.855 
02:10	72.8	72.8	72.8	89	69.4	0	0	---	0.00	29.855 
02:15	72.7	72.7	72.7	90	69.6	0	0	---	0.00	29.858 
02:20	72.7	72.7	72.7	90	69.6	0	0	---	0.00	29.858 
02:25	72.7	72.7	72.7	90	69.6	0	0	---	0.00	29.858 
02:30	72.5	72.5	72.5	90	69.4	0	0	---	0.00	29.858 
02:35	72.5	72.5	72.5	91	69.7	0	0	---	0.00	29.858 
02:40	72.3	72.3	72.3	91	69.5	0	0	---	0.00	29.858 
02:45	72.3	72.3	72.3	91	69.5	0	0	---	0.00	29.862 
02:50	72.1	72.1	72.1	91	69.3	0	0	---	0.00	29.862 
02:55	72.1	72.1	72.1	92	69.6	0	0	---	0.00	29.862 
03:00	72.3	72.3	72.3	92	69.8	0	0	---	0.00	29.863 
03:05	72.3	72.3	72.3	92	69.8	0	0	---	0.00	29.863 
03:10	72.1	72.1	72.1	92	69.6	0	0	---	0.00	29.863 
03:15	72.3	72.3	72.3	92	69.8	0	0	---	0.00	29.858 
03:20	72.5	72.5	72.5	92	70.0	0	1	270	0.00	29.858 
03:25	72.7	72.7	72.7	92	70.2	0	0	---	0.00	29.858 
03:30	72.8	72.8	72.8	92	70.3	0	0	---	0.00	29.856 
03:35	73.0	73.0	73.0	91	70.2	0	0	---	0.00	29.856 
03:40	73.0	73.0	73.0	91	70.2	0	0	---	0.00	29.856 
03:45	73.0	73.0	73.0	90	69.9	0	0	---	0.00	29.861 
03:50	73.2	73.2	73.2	90	70.1	0	0	---	0.00	29.861 
03:55	73.3	73.3	73.3	89	69.9	0	0	---	0.00	29.861 
04:00	73.3	73.3	73.3	89	69.9	0	0	---	0.00	29.858 
04:05	73.3	73.3	73.3	88	69.5	0	0	---	0.00	29.858 
04:10	73.3	73.3	73.3	88	69.5	0	0	---	0.00	29.858 
04:15	73.2	73.2	73.2	88	69.4	0	0	---	0.00	29.859 
04:20	73.2	73.2	73.2	89	69.8	0	0	---	0.00	29.859 
04:25	73.0	73.0	73.0	88	69.2	0	0	---	0.00	29.859 
04:30	72.8	72.8	72.8	88	69.0	0	0	---	0.00	29.861 
04:35	72.8	72.8	72.8	89	69.4	0	0	---	0.00	29.861 
04:40	72.7	72.7	72.7	89	69.3	0	0	---	0.00	29.861 
04:45	72.5	72.5	72.5	89	69.1	0	0	---	0.00	29.861 
04:50	72.3	72.3	72.3	89	68.9	0	0	---	0.00	29.861 
04:55	72.1	72.1	72.1	89	68.7	0	0	---	0.00	29.861 
05:00	72.0	72.0	72.0	89	68.6	0	0	---	0.00	29.863 
05:05	71.8	71.8	71.8	90	68.7	0	0	---	0.00	29.863 
05:10	71.6	71.6	71.6	90	68.5	0	0	---	0.00	29.863 
05:15	71.5	71.5	71.5	90	68.4	0	0	---	0.00	29.862 
05:20	71.5	71.5	71.5	90	68.4	0	0	---	0.00	29.862 
05:25	71.3	71.3	71.3	91	68.5	0	0	---	0.00	29.862 
05:30	71.3	71.3	71.3	91	68.5	0	0	---	0.00	29.861 
05:35	71.1	71.1	71.1	91	68.3	0	0	---	0.00	29.861 
05:40	70.9	70.9	70.9	91	68.1	0	0	---	0.00	29.861 
05:45	70.9	70.9	70.9	91	68.1	0	0	---	0.00	29.864 
05:50	70.8	70.8	70.8	92	68.4	0	0	---	0.00	29.864 
05:55	70.8	70.8	70.8	92	68.4	0	0	---	0.00	29.864 
06:00	70.6	70.6	70.6	92	68.2	0	0	---	0.00	29.865 
06:05	70.4	70.4	70.4	92	68.0	0	0	---	0.00	29.865 
06:10	70.3	70.3	70.3	92	67.9	0	0	---	0.00	29.865 
06:15	70.3	70.3	70.3	92	67.9	0	0	---	0.00	29.867 
06:20	70.1	70.1	70.1	92	67.7	0	0	---	0.00	29.867 
06:25	69.9	69.9	69.9	92	67.5	0	0	---	0.00	29.867 
06:30	69.9	69.9	69.9	93	67.8	0	0	---	0.00	29.870 
06:35	69.9	69.9	69.9	93	67.8	0	0	---	0.00	29.870 
06:40	69.8	69.8	69.8	93	67.7	0	0	---	0.00	29.870 
06:45	69.9	69.9	69.9	93	67.8	0	0	---	0.00	29.875 
06:50	70.3	70.3	70.3	94	68.5	0	0	---	0.00	29.875 
06:55	70.4	70.4	70.4	94	68.6	0	0	---	0.00	29.875 
07:00	70.6	70.6	70.6	94	68.8	0	0	---	0.00	29.875 
07:05	70.9	70.9	70.9	94	69.1	0	0	---	0.00	29.875 
07:10	71.1	71.1	71.1	94	69.3	0	0	---	0.00	29.875 
07:15	71.5	71.5	71.5	94	69.7	0	0	---	0.00	29.880 
07:20	71.8	71.8	71.8	94	70.0	0	1	270	0.00	29.880 
07:25	72.1	72.1	72.1	94	70.3	0	1	270	0.00	29.880 
07:30	72.7	72.7	72.7	94	70.9	0	1	270	0.00	29.878 
07:35	73.0	73.0	73.0	94	71.2	0	2	270	0.00	29.878 
07:40	73.2	73.2	73.2	93	71.0	1	3	270	0.00	29.878 
07:45	73.5	73.5	73.5	92	71.0	0	3	270	0.00	29.880 
07:50	73.9	73.9	73.9	92	71.4	1	3	270	0.00	29.880 
07:55	74.0	74.0	74.0	91	71.2	1	2	270	0.00	29.880 
08:00	74.4	74.4	74.4	90	71.3	1	3	270	0.00	29.880 
08:05	74.7	74.7	74.7	89	71.2	1	3	270	0.00	29.880 
08:10	75.1	75.1	74.6	88	71.3	1	3	270	0.00	29.880 
08:15	75.3	75.3	75.1	87	71.2	2	4	270	0.00	29.881 
08:20	75.6	75.6	75.8	86	71.1	0	2	270	0.00	29.881 
08:25	76.0	76.0	76.6	85	71.2	1	2	270	0.00	29.881 
08:30	76.3	76.3	77.2	84	71.1	1	3	202	0.00	29.883 
08:35	76.7	76.7	78.0	82	70.8	0	2	225	0.00	29.883 
08:40	77.0	77.0	78.5	81	70.7	0	3	225	0.00	29.883 
08:45	77.4	77.4	79.3	79	70.4	1	2	225	0.00	29.880 
08:50	77.7	77.7	79.7	78	70.3	1	2	225	0.00	29.880 
08:55	77.9	77.9	80.0	75	69.3	1	3	225	0.00	29.880 
09:00	78.3	78.3	80.6	74	69.3	1	3	202	0.00	29.886 
09:05	78.6	78.6	81.0	73	69.2	1	3	202	0.00	29.886 
09:10	78.6	78.6	81.0	72	68.8	1	4	315	0.00	29.886 
09:15	79.0	79.0	81.6	72	69.2	1	3	270	0.00	29.891 
09:20	79.4	79.4	82.0	70	68.7	0	2	292	0.00	29.891 
09:25	79.8	79.8	82.6	70	69.1	1	3	292	0.00	29.891 
09:30	80.3	80.3	83.2	68	68.8	1	3	292	0.00	29.885 
09:35	80.5	80.5	83.1	65	67.6	1	4	292	0.00	29.885 
09:40	80.9	80.9	84.0	67	68.9	0	2	292	0.00	29.885 
09:45	80.9	80.9	83.5	64	67.6	1	2	292	0.00	29.885 
09:50	81.1	81.1	83.8	64	67.7	1	3	292	0.00	29.885 
09:55	81.6	81.6	84.6	64	68.2	1	2	292	0.00	29.885 
10:00	82.0	82.0	85.0	63	68.1	0	2	292	0.00	29.887 
10:05	82.2	82.2	85.1	62	67.9	0	2	292	0.00	29.887 
10:10	82.6	82.6	85.7	62	68.2	0	1	292	0.00	29.887 
10:15	82.8	82.8	85.4	59	67.0	1	3	292	0.00	29.889 
10:20	83.2	83.2	86.0	59	67.4	1	3	292	0.00	29.889 
10:25	83.2	83.2	85.8	58	66.9	1	3	292	0.00	29.889 
10:30	83.4	83.4	85.8	57	66.5	1	3	315	0.00	29.892 
10:35	83.6	83.6	86.1	57	66.7	2	3	315	0.00	29.892 
10:40	84.0	84.0	86.5	56	66.6	1	3	315	0.00	29.892 
10:45	84.1	84.1	85.5	51	64.0	2	5	315	0.00	29.891 
10:50	84.3	84.3	86.2	53	65.3	1	5	270	0.00	29.891 
10:55	84.5	84.5	86.3	52	64.9	1	3	270	0.00	29.891 
11:00	84.7	84.7	86.3	51	64.5	3	5	292	0.00	29.895 
11:05	84.7	84.7	86.3	51	64.5	3	5	270	0.00	29.895 
11:10	84.9	84.9	86.3	50	64.2	1	3	270	0.00	29.895 
11:15	85.1	85.1	86.6	50	64.3	2	6	270	0.00	29.895 
11:20	85.1	85.1	86.6	50	64.3	1	4	270	0.00	29.895 
11:25	85.5	85.5	87.2	50	64.7	1	4	270	0.00	29.895 
11:30	85.7	85.7	87.4	50	64.9	1	2	292	0.00	29.893 
11:35	85.9	85.9	87.5	49	64.5	2	6	270	0.00	29.893 
11:40	85.9	85.9	87.5	49	64.5	1	4	225	0.00	29.893 
11:45	85.9	85.9	86.9	47	63.3	2	5	315	0.00	29.893 
11:50	86.1	86.1	87.2	47	63.5	1	5	315	0.00	29.893 
11:55	86.5	86.5	87.8	47	63.8	2	4	270	0.00	29.893 
12:00	86.3	86.3	87.8	48	64.3	3	6	270	0.00	29.898 
12:05	86.3	86.3	88.0	49	64.9	2	4	315	0.00	29.898 
12:10	86.3	86.3	87.0	45	62.4	2	5	270	0.00	29.898 
12:15	86.5	86.5	87.5	46	63.2	2	6	270	0.00	29.903 
12:20	86.7	86.7	87.8	46	63.4	3	6	270	0.00	29.903 
12:25	86.7	86.7	87.8	46	63.4	2	5	315	0.00	29.903 
12:30	87.2	87.2	87.9	44	62.6	2	5	315	0.00	29.903 
12:35	87.4	87.4	88.5	45	63.4	2	6	270	0.00	29.903 
12:40	87.4	87.4	88.2	44	62.8	2	5	270	0.00	29.903 
12:45	87.4	87.4	88.2	44	62.8	2	6	270	0.00	29.906 
12:50	87.4	87.4	87.4	41	60.8	2	5	270	0.00	29.906 
12:55	87.6	87.6	87.6	41	60.9	2	5	292	0.00	29.906 
13:00	87.8	87.8	87.6	40	60.4	2	4	270	0.00	29.906 
13:05	87.6	87.6	87.9	42	61.6	2	4	315	0.00	29.906 
13:10	87.6	87.6	87.6	41	60.9	3	6	270	0.00	29.906 
13:15	87.4	87.4	87.6	42	61.5	2	4	315	0.00	29.910 
13:20	87.6	87.6	87.6	41	60.9	2	7	315	0.00	29.910 
13:25	87.8	87.8	88.2	42	61.8	2	4	315	0.00	29.910 
13:30	88.0	88.0	87.9	40	60.6	2	5	315	0.00	29.907 
13:35	88.0	88.0	87.6	39	59.9	3	6	270	0.00	29.907 
13:40	88.0	88.0	88.2	41	61.3	2	5	315	0.00	29.907 
13:45	88.4	88.4	88.7	41	61.7	2	5	292	0.00	29.908 
13:50	88.4	88.4	88.7	41	61.7	2	6	315	0.00	29.908 
13:55	88.4	88.4	88.4	40	61.0	2	7	292	0.00	29.908 
14:00	88.6	88.6	88.4	39	60.4	2	5	292	0.00	29.904 
14:05	88.8	88.8	88.7	39	60.6	1	4	292	0.00	29.904 
14:10	89.0	89.0	89.0	39	60.8	2	4	315	0.00	29.904 
14:15	88.8	88.8	88.7	39	60.6	3	6	315	0.00	29.905 
14:20	88.8	88.8	88.7	39	60.6	2	5	292	0.00	29.905 
14:25	89.3	89.3	89.4	39	61.0	2	5	292	0.00	29.905 
14:30	89.0	89.0	89.3	40	61.5	0	2	315	0.00	29.903 
14:35	89.0	89.0	88.4	37	59.3	2	7	270	0.00	29.903 
14:40	88.8	88.8	88.1	37	59.1	3	7	270	0.00	29.903 
14:45	89.0	89.0	88.7	38	60.1	2	6	270	0.00	29.899 
14:50	89.0	89.0	89.3	40	61.5	2	4	315	0.00	29.899 
14:55	89.3	89.3	89.1	38	60.3	1	4	292	0.00	29.899 
15:00	89.5	89.5	89.6	39	61.2	2	5	292	0.00	29.893 
15:05	89.5	89.5	89.1	37	59.7	2	6	270	0.00	29.893 
15:10	89.7	89.7	89.9	39	61.4	2	5	270	0.00	29.893 
15:15	89.7	89.7	89.6	38	60.7	2	6	315	0.00	29.891 
15:20	89.7	89.7	89.9	39	61.4	1	4	292	0.00	29.891 
15:25	89.7	89.7	90.2	40	62.1	2	6	292	0.00	29.891 
15:30	89.9	89.9	89.6	37	60.1	1	5	270	0.00	29.888 
15:35	89.5	89.5	89.3	38	60.5	3	6	270	0.00	29.888 
15:40	89.7	89.7	89.6	38	60.7	1	3	315	0.00	29.888 
15:45	90.1	90.1	90.5	39	61.8	2	4	270	0.00	29.887 
15:50	90.1	90.1	90.2	38	61.0	2	5	270	0.00	29.887 
15:55	90.1	90.1	90.5	39	61.8	1	3	292	0.00	29.887 
16:00	90.1	90.1	90.5	39	61.8	1	3	292	0.00	29.878 
16:05	90.1	90.1	90.2	38	61.0	2	5	270	0.00	29.878 
16:10	89.9	89.9	89.6	37	60.1	1	3	292	0.00	29.878 
16:15	90.1	90.1	90.5	39	61.8	1	3	292	0.00	29.872 
16:20	89.7	89.7	89.9	39	61.4	1	4	315	0.00	29.872 
16:25	89.5	89.5	90.6	42	63.3	1	3	338	0.00	29.872 
16:30	89.5	89.5	90.0	40	61.9	2	6	315	0.00	29.868 
16:35	89.3	89.3	89.7	40	61.8	2	5	270	0.00	29.868 
16:40	89.5	89.5	90.3	41	62.6	1	4	292	0.00	29.868 
16:45	89.5	89.5	90.0	40	61.9	2	5	292	0.00	29.862 
16:50	89.5	89.5	89.3	38	60.5	2	5	270	0.00	29.862 
16:55	89.7	89.7	89.9	39	61.4	1	3	270	0.00	29.862 
17:00	89.9	89.9	89.6	37	60.1	1	3	270	0.00	29.855 
17:05	89.9	89.9	89.9	38	60.8	1	3	338	0.00	29.855 
17:10	89.7	89.7	89.9	39	61.4	1	3	338	0.00	29.855 
17:15	89.3	89.3	89.1	38	60.3	2	5	292	0.00	29.843 
17:20	89.3	89.3	89.1	38	60.3	2	4	315	0.00	29.843 
17:25	89.3	89.3	89.1	38	60.3	2	4	315	0.00	29.843 
17:30	89.3	89.3	88.8	37	59.6	1	3	292	0.00	29.840 
17:35	89.3	89.3	88.8	37	59.6	2	5	292	0.00	29.840 
17:40	89.3	89.3	88.8	37	59.6	1	5	292	0.00	29.840 
17:45	89.3	89.3	89.1	38	60.3	1	7	292	0.00	29.839 
17:50	89.3	89.3	88.8	37	59.6	1	5	292	0.00	29.839 
17:55	89.0	89.0	88.1	36	58.5	2	5	270	0.00	29.839 
18:00	88.8	88.8	88.4	38	59.9	1	3	270	0.00	29.841 
18:05	88.8	88.8	88.4	38	59.9	1	4	292	0.00	29.841 
18:10	88.6	88.6	88.2	38	59.7	1	3	292	0.00	29.841 
18:15	88.2	88.2	87.4	37	58.6	2	4	292	0.00	29.851 
18:20	88.2	88.2	87.4	37	58.6	2	4	270	0.00	29.851 
18:25	88.2	88.2	87.9	39	60.1	1	4	270	0.00	29.851 
18:30	88.0	88.0	87.6	39	59.9	1	3	0	0.00	29.855 
18:35	88.0	88.0	87.1	37	58.4	1	3	0	0.00	29.855 
18:40	88.2	88.2	87.9	39	60.1	1	3	0	0.00	29.855 
18:45	88.2	88.2	87.6	38	59.3	1	3	248	0.00	29.873 
18:50	88.0	88.0	87.1	37	58.4	1	2	292	0.00	29.873 
18:55	87.8	87.8	87.1	38	59.0	0	2	292	0.00	29.873 
19:00	87.6	87.6	86.9	38	58.8	1	2	315	0.00	29.865 
19:05	87.6	87.6	87.1	39	59.5	1	3	315	0.00	29.865 
19:10	87.6	87.6	87.1	39	59.5	1	3	315	0.00	29.865 
19:15	87.4	87.4	86.9	39	59.4	1	3	315	0.00	29.874 
19:20	87.0	87.0	86.6	40	59.7	1	3	315	0.00	29.874 
19:25	86.7	86.7	86.5	41	60.1	2	5	270	0.00	29.874 
19:30	86.5	86.5	86.7	43	61.3	3	5	270	0.00	29.891 
19:35	86.3	86.3	86.7	44	61.8	1	3	292	0.00	29.891 
19:40	86.1	86.1	86.5	44	61.6	2	4	270	0.00	29.891 
19:45	85.9	85.9	86.4	45	62.1	2	5	270	0.00	29.894 
19:50	85.7	85.7	86.4	46	62.5	2	5	270	0.00	29.894 
19:55	85.3	85.3	85.9	46	62.1	2	4	292	0.00	29.894 
20:00	84.9	84.9	85.6	47	62.4	2	6	315	0.00	29.909 
20:05	84.7	84.7	85.6	48	62.8	1	2	270	0.00	29.909 
20:10	84.3	84.3	85.1	48	62.4	1	4	270	0.00	29.909 
20:15	84.0	84.0	84.7	48	62.2	2	5	270	0.00	29.908 
20:20	83.6	83.6	84.4	49	62.4	2	4	292	0.00	29.908 
20:25	83.4	83.4	84.4	50	62.8	1	4	292	0.00	29.908 
20:30	83.0	83.0	83.9	50	62.4	2	5	292	0.00	29.912 
20:35	82.8	82.8	83.8	51	62.8	1	3	292	0.00	29.912 
20:40	82.6	82.6	83.6	51	62.6	1	3	315	0.00	29.912 
20:45	82.4	82.4	83.4	51	62.4	2	5	338	0.00	29.917 
20:50	82.4	82.4	83.5	52	63.0	1	2	338	0.00	29.917 
20:55	82.2	82.2	83.3	52	62.8	1	3	338	0.00	29.917 
21:00	82.0	82.0	83.2	53	63.2	0	2	338	0.00	29.921 
21:05	81.8	81.8	83.0	53	63.0	0	2	338	0.00	29.921 
21:10	81.6	81.6	82.8	53	62.8	1	4	338	0.00	29.921 
21:15	81.4	81.4	82.5	53	62.6	2	6	270	0.00	29.921 
21:20	81.2	81.2	82.5	54	62.9	2	6	270	0.00	29.921 
21:25	81.1	81.1	82.3	54	62.9	2	5	270	0.00	29.921 
21:30	80.7	80.7	82.0	55	63.0	1	3	315	0.00	29.913 
21:35	80.5	80.5	81.8	55	62.8	1	4	292	0.00	29.913 
21:40	80.1	80.1	81.4	55	62.4	0	2	292	0.00	29.913 
21:45	79.9	79.9	81.3	56	62.8	1	4	292	0.00	29.904 
21:50	79.6	79.6	81.0	56	62.5	1	4	315	0.00	29.904 
21:55	79.4	79.4	80.8	56	62.3	1	3	315	0.00	29.904 
22:00	79.2	79.2	80.7	57	62.6	1	3	315	0.00	29.899 
22:05	79.0	79.0	80.5	57	62.4	2	6	315	0.00	29.899 
22:10	78.6	78.6	80.1	57	62.1	2	4	292	0.00	29.899 
22:15	78.3	78.3	79.8	57	61.8	2	5	292	0.00	29.906 
22:20	78.1	78.1	79.6	57	61.6	1	4	292	0.00	29.906 
22:25	77.7	77.7	79.3	58	61.7	1	4	292	0.00	29.906 
22:30	77.6	77.6	79.2	58	61.6	1	3	292	0.00	29.906 
22:35	77.2	77.2	78.9	58	61.3	1	2	292	0.00	29.906 
22:40	77.0	77.0	78.8	58	61.1	1	3	315	0.00	29.906 
22:45	76.7	76.7	78.5	58	60.8	0	1	315	0.00	29.906 
22:50	76.5	76.5	78.4	58	60.6	0	1	315	0.00	29.906 
22:55	76.3	76.3	78.2	58	60.4	0	2	315	0.00	29.906 
23:00	76.1	76.1	78.1	58	60.2	1	3	315	0.00	29.916 
23:05	76.1	76.1	78.1	58	60.2	0	1	315	0.00	29.916 
23:10	76.0	76.0	78.0	58	60.1	1	3	315	0.00	29.916 
23:15	75.8	75.8	77.9	58	59.9	0	2	315	0.00	29.915 
23:20	75.6	75.6	77.8	58	59.8	0	1	315	0.00	29.915 
23:25	75.4	75.4	77.7	58	59.6	0	3	315	0.00	29.915 
23:30	75.4	75.4	77.7	58	59.6	0	2	315	0.00	29.914 
23:35	75.3	75.3	77.6	58	59.5	0	1	315	0.00	29.914 
23:40	75.1	75.1	77.5	57	58.8	0	1	315	0.00	29.914 
23:45	74.9	74.9	74.9	56	58.1	0	2	315	0.00	29.912 
23:50	74.9	74.9	74.9	57	58.6	0	1	315	0.00	29.912 
23:55	74.7	74.7	74.7	57	58.4	0	2	315	0.00	29.912 

CoCoRaHS
IN-AL-39
A2 Web Hosting
Creative Commons License
GoDaddy
search engine by freefind advanced

loaded 2018-11-22 06:12:36 • last modified 2010-11-18 10:43:29
Privacy PolicyDisclaimer
• wx.awcolley.com is powered by PmWiki v.2002016 •
• all content (unless otherwise noted) © 2018 A W Colley